Time;durP1;ratioP1;P1;durP2;ratioP2;P2;SDS_P1;SDS_P2;PMS_P1;PMS_P2;Temp;Humidity;BMP_temperature;BMP_pressure;BME280_temperature;BME280_humidity;BME280_pressure;Samples;Min_cycle;Max_cycle;Signal;HPM_P1;HPM_P2
2022/03/24 00:01:34;;;;;;;53.30;29.20;;;9.00;99.90;;;;;;4980703;28;20192;-75
2022/03/24 00:04:00;;;;;;;55.97;29.90;;;9.00;99.90;;;;;;4985503;28;20193;-75
2022/03/24 00:06:25;;;;;;;55.57;30.67;;;9.00;99.90;;;;;;4972635;28;20189;-75
2022/03/24 00:08:51;;;;;;;55.40;30.10;;;9.00;99.90;;;;;;4987309;28;20211;-75
2022/03/24 00:11:17;;;;;;;48.97;29.73;;;8.90;99.90;;;;;;4973558;28;20197;-75
2022/03/24 00:13:43;;;;;;;53.90;28.10;;;8.90;99.90;;;;;;4957209;28;20290;-75
2022/03/24 00:16:10;;;;;;;59.67;30.57;;;8.90;99.90;;;;;;4976144;28;20284;-75
2022/03/24 00:18:35;;;;;;;55.63;30.27;;;8.80;99.90;;;;;;4974359;28;20583;-75
2022/03/24 00:21:02;;;;;;;50.17;28.37;;;8.80;99.90;;;;;;4975670;28;20196;-75
2022/03/24 00:23:28;;;;;;;54.93;30.27;;;8.70;99.90;;;;;;4976241;28;20189;-74
2022/03/24 00:25:53;;;;;;;55.00;30.20;;;8.70;99.90;;;;;;4965048;28;20195;-75
2022/03/24 00:28:19;;;;;;;58.47;31.23;;;8.70;99.90;;;;;;4985053;28;20689;-74
2022/03/24 00:30:45;;;;;;;56.80;29.57;;;8.60;99.90;;;;;;4975506;28;20555;-74
2022/03/24 00:33:12;;;;;;;60.97;29.57;;;8.60;99.90;;;;;;4975498;28;20189;-74
2022/03/24 00:35:38;;;;;;;50.63;27.77;;;8.60;99.90;;;;;;4976914;28;20717;-74
2022/03/24 00:38:05;;;;;;;46.63;28.77;;;8.60;99.90;;;;;;4959195;28;20304;-74
2022/03/24 00:40:30;;;;;;;47.97;30.50;;;8.50;99.90;;;;;;4955509;28;20192;-74
2022/03/24 00:42:57;;;;;;;57.30;31.00;;;8.50;99.90;;;;;;4968305;28;20204;-75
2022/03/24 00:45:23;;;;;;;51.23;28.17;;;8.50;99.90;;;;;;4989572;28;20192;-74
2022/03/24 00:47:49;;;;;;;48.63;27.43;;;8.50;99.90;;;;;;4982125;28;20200;-75
2022/03/24 00:50:15;;;;;;;56.93;30.20;;;8.40;99.90;;;;;;4976535;28;20189;-74
2022/03/24 00:52:41;;;;;;;53.00;28.00;;;8.40;99.90;;;;;;4981460;28;20238;-74
2022/03/24 00:55:18;;;;;;;62.63;29.77;;;8.40;99.90;;;;;;4989601;28;20232;-74
2022/03/24 00:57:46;;;;;;;50.33;27.87;;;8.30;99.90;;;;;;4976423;28;20181;-74
2022/03/24 01:00:15;;;;;;;54.70;28.40;;;8.30;99.90;;;;;;4958892;28;20188;-74
2022/03/24 01:02:41;;;;;;;48.20;29.87;;;8.30;99.90;;;;;;4976186;28;20193;-75
2022/03/24 01:05:08;;;;;;;56.97;29.17;;;8.30;99.90;;;;;;4975155;28;20292;-74
2022/03/24 01:07:37;;;;;;;54.03;29.57;;;8.20;99.90;;;;;;4975424;28;20263;-74
2022/03/24 01:10:03;;;;;;;58.30;28.13;;;8.20;99.90;;;;;;4958851;28;20255;-74
2022/03/24 01:12:29;;;;;;;58.23;29.67;;;8.20;99.90;;;;;;4978678;28;20215;-74
2022/03/24 01:14:58;;;;;;;53.50;27.87;;;8.20;99.90;;;;;;4988591;28;20669;-75
2022/03/24 01:17:26;;;;;;;59.40;29.30;;;8.10;99.90;;;;;;4949500;28;20184;-74
2022/03/24 01:19:52;;;;;;;58.33;27.07;;;8.10;99.90;;;;;;4962466;28;20716;-75
2022/03/24 01:22:18;;;;;;;51.93;30.27;;;8.10;99.90;;;;;;4975157;28;20264;-74
2022/03/24 01:24:45;;;;;;;55.13;30.03;;;8.10;99.90;;;;;;4958353;28;20275;-74
2022/03/24 01:27:12;;;;;;;57.07;28.27;;;8.00;99.90;;;;;;4974092;28;20247;-74
2022/03/24 01:29:38;;;;;;;57.00;30.43;;;8.00;99.90;;;;;;4988212;28;20184;-74
2022/03/24 01:32:04;;;;;;;53.73;29.60;;;7.90;99.90;;;;;;4978290;28;20192;-74
2022/03/24 01:34:30;;;;;;;52.17;27.63;;;7.90;99.90;;;;;;4985010;28;20642;-75
2022/03/24 01:36:56;;;;;;;56.33;29.23;;;7.90;99.90;;;;;;4974940;28;20207;-74
2022/03/24 01:39:22;;;;;;;59.57;29.33;;;7.90;99.90;;;;;;4958009;28;20243;-75
2022/03/24 01:41:50;;;;;;;55.13;29.70;;;7.80;99.90;;;;;;4974469;28;20204;-75
2022/03/24 01:44:17;;;;;;;55.50;29.53;;;7.80;99.90;;;;;;4979426;28;20195;-75
2022/03/24 01:46:59;;;;;;;51.03;26.73;;;7.80;99.90;;;;;;4992954;28;20176;-75
2022/03/24 01:49:29;;;;;;;53.87;29.33;;;7.80;99.90;;;;;;4975830;28;20191;-75
2022/03/24 01:51:56;;;;;;;55.23;28.23;;;7.70;99.90;;;;;;4975290;28;20185;-75
2022/03/24 01:54:23;;;;;;;52.83;29.23;;;7.70;99.90;;;;;;4974225;28;20331;-75
2022/03/24 01:56:50;;;;;;;58.43;30.83;;;7.60;99.90;;;;;;4991018;28;20185;-75
2022/03/24 01:59:17;;;;;;;62.27;30.40;;;7.60;99.90;;;;;;4964754;28;20649;-75
2022/03/24 02:01:44;;;;;;;58.80;30.30;;;7.60;99.90;;;;;;4975170;28;20181;-73
2022/03/24 02:04:10;;;;;;;56.00;27.93;;;7.60;99.90;;;;;;4988161;28;20224;-73
2022/03/24 02:06:37;;;;;;;52.73;27.73;;;7.60;99.90;;;;;;4986195;28;20180;-73
2022/03/24 02:09:06;;;;;;;56.53;30.67;;;7.50;99.90;;;;;;4992305;28;20200;-74
2022/03/24 02:11:34;;;;;;;55.57;29.17;;;7.50;99.90;;;;;;4977616;28;20181;-74
2022/03/24 02:14:01;;;;;;;53.07;28.17;;;7.50;99.90;;;;;;4982276;28;20644;-74
2022/03/24 02:16:34;;;;;;;62.13;31.67;;;7.40;99.90;;;;;;4957878;28;20607;-74
2022/03/24 02:19:18;;;;;;;53.43;27.77;;;7.40;99.90;;;;;;4975779;28;20181;-73
2022/03/24 02:21:47;;;;;;;55.83;29.37;;;7.30;99.90;;;;;;4987481;28;20669;-74
2022/03/24 02:24:15;;;;;;;58.10;30.03;;;7.30;99.90;;;;;;4973251;28;20200;-73
2022/03/24 02:26:45;;;;;;;56.43;28.73;;;7.30;99.90;;;;;;4957511;28;20189;-73
2022/03/24 02:29:13;;;;;;;61.97;29.90;;;7.30;99.90;;;;;;4984538;28;20192;-73
2022/03/24 02:31:40;;;;;;;59.87;30.37;;;7.30;99.90;;;;;;4964699;28;20203;-73
2022/03/24 02:36:57;;;;;;;58.03;28.47;;;7.30;99.90;;;;;;4974387;28;20206;-73
2022/03/24 02:39:23;;;;;;;55.73;29.80;;;7.30;99.90;;;;;;4974404;28;20624;-74
2022/03/24 02:41:51;;;;;;;50.10;28.07;;;7.30;99.90;;;;;;4974343;28;20648;-73
2022/03/24 02:44:18;;;;;;;62.90;29.93;;;7.20;99.90;;;;;;4972826;28;20536;-74
2022/03/24 02:46:48;;;;;;;55.63;28.33;;;7.20;99.90;;;;;;4974619;28;20212;-73
2022/03/24 02:49:15;;;;;;;52.50;28.17;;;7.20;99.90;;;;;;4985669;28;20191;-73
2022/03/24 02:51:42;;;;;;;61.37;29.77;;;7.10;99.90;;;;;;4980552;28;20193;-73
2022/03/24 02:54:08;;;;;;;60.03;28.63;;;7.10;99.90;;;;;;4973056;28;20212;-74
2022/03/24 02:56:35;;;;;;;49.97;29.17;;;7.10;99.90;;;;;;4956840;28;20188;-73
2022/03/24 02:59:02;;;;;;;56.77;28.83;;;7.10;99.90;;;;;;4989381;28;20206;-73
2022/03/24 03:01:28;;;;;;;63.57;32.80;;;7.00;99.90;;;;;;4974122;28;20200;-73
2022/03/24 03:03:54;;;;;;;60.63;31.33;;;7.00;99.90;;;;;;4977562;28;20187;-74
2022/03/24 03:06:20;;;;;;;55.77;29.67;;;7.00;99.90;;;;;;4991374;28;20547;-73
2022/03/24 03:08:49;;;;;;;57.77;29.87;;;6.90;99.90;;;;;;4974413;28;20200;-74
2022/03/24 03:11:22;;;;;;;56.23;28.87;;;7.00;99.90;;;;;;4957624;28;20657;-74
2022/03/24 03:13:48;;;;;;;55.77;28.87;;;6.90;99.90;;;;;;4957061;28;20213;-75
2022/03/24 03:16:14;;;;;;;62.43;30.07;;;6.90;99.90;;;;;;4963937;28;20201;-74
2022/03/24 03:18:42;;;;;;;59.47;27.57;;;6.90;99.90;;;;;;4989289;28;20199;-74
2022/03/24 03:21:11;;;;;;;58.87;28.77;;;6.90;99.90;;;;;;4987952;28;20228;-74
2022/03/24 03:23:38;;;;;;;51.53;28.87;;;6.90;99.90;;;;;;4974696;28;20247;-74
2022/03/24 03:26:05;;;;;;;56.00;28.70;;;6.90;99.90;;;;;;4988791;28;20235;-73
2022/03/24 03:28:32;;;;;;;63.90;32.03;;;6.80;99.90;;;;;;4978510;28;20620;-74
2022/03/24 03:30:57;;;;;;;53.37;26.87;;;6.90;99.90;;;;;;4972925;28;20188;-74
2022/03/24 03:33:23;;;;;;;56.73;29.37;;;6.80;99.90;;;;;;4956708;28;20193;-73
2022/03/24 03:35:50;;;;;;;60.43;30.13;;;6.70;99.90;;;;;;4972825;28;20638;-74
2022/03/24 03:38:17;;;;;;;52.90;27.67;;;6.70;99.90;;;;;;4972849;28;20283;-74
2022/03/24 03:40:43;;;;;;;59.13;30.03;;;6.70;99.90;;;;;;4974147;28;20189;-74
2022/03/24 03:43:09;;;;;;;49.53;25.80;;;6.60;99.90;;;;;;4972672;28;20718;-74
2022/03/24 03:45:36;;;;;;;59.63;31.77;;;6.60;99.90;;;;;;4973986;28;20239;-74
2022/03/24 03:48:02;;;;;;;53.77;28.57;;;6.60;99.90;;;;;;4972702;28;20216;-74
2022/03/24 03:50:28;;;;;;;69.63;31.67;;;6.60;99.90;;;;;;4989265;28;20607;-74
2022/03/24 03:52:55;;;;;;;55.27;29.53;;;6.60;99.90;;;;;;4993049;28;20184;-73
2022/03/24 03:55:21;;;;;;;56.03;30.50;;;6.60;99.90;;;;;;4976586;28;20224;-74
2022/03/24 03:57:47;;;;;;;51.17;29.97;;;6.60;99.90;;;;;;4975986;28;20200;-73
2022/03/24 04:02:58;;;;;;;51.50;26.43;;;6.60;99.90;;;;;;4977473;28;20208;-74
2022/03/24 04:05:25;;;;;;;56.40;29.67;;;6.60;99.90;;;;;;4975980;28;20220;-74
2022/03/24 04:07:51;;;;;;;52.83;26.67;;;6.50;99.90;;;;;;4965798;28;20202;-75
2022/03/24 04:10:17;;;;;;;51.77;30.10;;;6.50;99.90;;;;;;4992151;28;20784;-74
2022/03/24 04:12:43;;;;;;;60.10;29.40;;;6.40;99.90;;;;;;4976621;28;20271;-73
2022/03/24 04:15:10;;;;;;;56.90;29.17;;;6.40;99.90;;;;;;4989229;28;20224;-74
2022/03/24 04:17:37;;;;;;;52.73;27.90;;;6.40;99.90;;;;;;4994152;28;20203;-73
2022/03/24 04:20:03;;;;;;;61.00;32.03;;;6.40;99.90;;;;;;4994752;28;20188;-73
2022/03/24 04:22:30;;;;;;;51.17;26.27;;;6.30;99.90;;;;;;4978675;28;20199;-73
2022/03/24 04:24:56;;;;;;;55.67;28.10;;;6.30;99.90;;;;;;4987893;28;20203;-74
2022/03/24 04:27:21;;;;;;;63.30;28.67;;;6.40;99.90;;;;;;4968181;28;20193;-74
2022/03/24 04:29:47;;;;;;;73.53;28.23;;;6.40;99.90;;;;;;4959641;28;20575;-74
2022/03/24 04:32:13;;;;;;;56.83;27.40;;;6.40;99.90;;;;;;4976323;28;20184;-74
2022/03/24 04:34:39;;;;;;;58.40;28.20;;;6.50;99.90;;;;;;4988267;28;20220;-73
2022/03/24 04:37:05;;;;;;;59.00;30.37;;;6.40;99.90;;;;;;4985134;28;20188;-73
2022/03/24 04:39:31;;;;;;;56.73;25.93;;;6.40;99.90;;;;;;4980957;28;20218;-73
2022/03/24 04:41:57;;;;;;;54.57;27.00;;;6.30;99.90;;;;;;4982843;28;20637;-73
2022/03/24 04:44:23;;;;;;;50.93;23.97;;;6.20;99.90;;;;;;4975333;28;20204;-74
2022/03/24 04:46:50;;;;;;;57.30;26.23;;;6.20;99.90;;;;;;4972561;28;20196;-73
2022/03/24 04:49:15;;;;;;;60.03;27.77;;;6.10;99.90;;;;;;4977199;28;20200;-73
2022/03/24 04:51:41;;;;;;;51.17;27.40;;;6.10;99.90;;;;;;4985433;28;20268;-73
2022/03/24 04:54:07;;;;;;;53.73;26.57;;;6.00;99.90;;;;;;4959713;28;20282;-73
2022/03/24 04:56:33;;;;;;;48.23;23.77;;;6.00;99.90;;;;;;4974914;28;20189;-73
2022/03/24 04:58:59;;;;;;;55.37;24.77;;;6.00;99.90;;;;;;4974896;28;20215;-73
2022/03/24 05:01:24;;;;;;;49.20;25.87;;;5.90;99.90;;;;;;4974035;28;20267;-73
2022/03/24 05:03:50;;;;;;;56.93;28.60;;;5.90;99.90;;;;;;4976154;28;20680;-73
2022/03/24 05:06:17;;;;;;;59.17;28.63;;;5.90;99.90;;;;;;4958815;28;20236;-73
2022/03/24 05:08:42;;;;;;;52.27;27.07;;;5.90;99.90;;;;;;4974844;28;20208;-73
2022/03/24 05:11:08;;;;;;;64.37;30.90;;;5.80;99.90;;;;;;4975219;28;20181;-73
2022/03/24 05:13:34;;;;;;;70.77;32.10;;;5.80;99.90;;;;;;4974813;28;20243;-73
2022/03/24 05:16:00;;;;;;;58.50;32.63;;;5.80;99.90;;;;;;4958833;28;20645;-73
2022/03/24 05:18:25;;;;;;;64.90;31.20;;;5.80;99.90;;;;;;4975948;28;20271;-74
2022/03/24 05:20:51;;;;;;;77.17;32.97;;;5.80;99.90;;;;;;4976143;28;20189;-74
2022/03/24 05:23:17;;;;;;;75.77;32.00;;;5.80;99.90;;;;;;4974694;28;20196;-73
2022/03/24 05:25:47;;;;;;;65.83;31.50;;;5.80;99.90;;;;;;4983274;28;20263;-73
2022/03/24 05:28:13;;;;;;;61.87;30.60;;;5.80;99.90;;;;;;4986251;28;20191;-73
2022/03/24 05:30:39;;;;;;;78.70;34.00;;;5.80;99.90;;;;;;4985544;28;20188;-72
2022/03/24 05:33:05;;;;;;;62.00;31.37;;;5.80;99.90;;;;;;4974735;28;20196;-73
2022/03/24 05:35:35;;;;;;;80.53;34.17;;;5.70;99.90;;;;;;4975778;28;20217;-72
2022/03/24 05:38:03;;;;;;;73.93;31.67;;;5.70;99.90;;;;;;4981833;28;20531;-72
2022/03/24 05:40:29;;;;;;;61.70;29.97;;;5.70;99.90;;;;;;4977150;28;20564;-72
2022/03/24 05:42:54;;;;;;;76.90;30.80;;;5.70;99.90;;;;;;4987254;28;20197;-72
2022/03/24 05:45:20;;;;;;;68.50;32.03;;;5.70;99.90;;;;;;4976252;28;20665;-71
2022/03/24 05:47:46;;;;;;;62.90;29.47;;;5.70;99.90;;;;;;4992287;28;20183;-73
2022/03/24 05:50:15;;;;;;;68.17;31.83;;;5.80;99.90;;;;;;4974262;28;20603;-72
2022/03/24 05:52:41;;;;;;;70.53;32.23;;;5.80;99.90;;;;;;4943373;28;20542;-73
2022/03/24 05:55:08;;;;;;;72.20;32.73;;;5.80;99.90;;;;;;4975368;28;20228;-73
2022/03/24 05:57:34;;;;;;;63.57;33.43;;;5.90;99.90;;;;;;4974887;28;20197;-73
2022/03/24 06:00:01;;;;;;;70.47;33.97;;;5.90;99.90;;;;;;4958424;28;20653;-73
2022/03/24 06:02:27;;;;;;;73.33;34.03;;;6.00;99.90;;;;;;4958100;28;20194;-73
2022/03/24 06:04:54;;;;;;;67.13;33.10;;;6.00;99.90;;;;;;4974870;28;20247;-73
2022/03/24 06:07:19;;;;;;;87.10;34.13;;;6.00;99.90;;;;;;4965196;28;20720;-74
2022/03/24 06:09:45;;;;;;;77.90;34.17;;;6.00;99.90;;;;;;4973791;28;20208;-74
2022/03/24 06:12:12;;;;;;;72.90;32.53;;;6.10;99.90;;;;;;4957643;28;20287;-74
2022/03/24 06:14:40;;;;;;;74.40;32.93;;;6.10;99.90;;;;;;4974266;28;20216;-73
2022/03/24 06:17:06;;;;;;;66.53;32.27;;;6.20;99.90;;;;;;4973549;28;20193;-73
2022/03/24 06:19:35;;;;;;;79.67;35.37;;;6.20;99.90;;;;;;4973812;28;20629;-73
2022/03/24 06:22:04;;;;;;;68.00;31.67;;;6.20;99.90;;;;;;4975401;28;20204;-73
2022/03/24 06:24:34;;;;;;;78.63;33.27;;;6.30;99.90;;;;;;4973543;28;20287;-73
2022/03/24 06:26:59;;;;;;;67.20;33.63;;;6.30;99.90;;;;;;4957220;28;20205;-76
2022/03/24 06:29:25;;;;;;;72.17;33.40;;;6.40;99.90;;;;;;4974529;28;20654;-73
2022/03/24 06:31:51;;;;;;;70.83;31.80;;;6.50;99.90;;;;;;4973278;28;20649;-73
2022/03/24 06:34:17;;;;;;;72.57;35.03;;;6.50;99.90;;;;;;4943085;28;20219;-73
2022/03/24 06:36:42;;;;;;;64.43;33.93;;;6.60;99.90;;;;;;4974676;28;20197;-73
2022/03/24 06:39:08;;;;;;;67.90;33.20;;;6.70;99.90;;;;;;4973506;28;20193;-73
2022/03/24 06:41:35;;;;;;;59.13;31.37;;;6.70;99.90;;;;;;4973433;28;20196;-73
2022/03/24 06:44:04;;;;;;;67.13;33.23;;;6.80;99.90;;;;;;4973103;28;20657;-74
2022/03/24 06:46:30;;;;;;;72.70;33.63;;;6.90;99.90;;;;;;4958107;28;20196;-74
2022/03/24 06:48:56;;;;;;;71.23;32.10;;;7.00;99.90;;;;;;4974661;28;20184;-73
2022/03/24 06:51:22;;;;;;;67.87;30.63;;;7.10;99.90;;;;;;4956826;28;20695;-73
2022/03/24 06:53:47;;;;;;;59.03;30.37;;;7.20;99.90;;;;;;4973015;28;20565;-74
2022/03/24 06:56:13;;;;;;;58.63;30.53;;;7.30;99.90;;;;;;4983191;28;20256;-74
2022/03/24 06:58:39;;;;;;;60.70;29.93;;;7.40;99.90;;;;;;4981143;28;20200;-74
2022/03/24 07:01:05;;;;;;;61.03;31.00;;;7.50;99.90;;;;;;4979622;28;20192;-74
2022/03/24 07:03:30;;;;;;;67.07;30.70;;;7.60;99.90;;;;;;4973307;28;20193;-72
2022/03/24 07:05:56;;;;;;;65.50;31.67;;;7.70;99.90;;;;;;4974745;28;20189;-75
2022/03/24 07:08:25;;;;;;;56.33;31.17;;;7.90;99.90;;;;;;4972689;28;20668;-80
2022/03/24 07:10:51;;;;;;;68.50;32.93;;;8.00;99.90;;;;;;4973208;28;20185;-77
2022/03/24 07:13:17;;;;;;;72.00;34.20;;;8.00;99.90;;;;;;4972987;28;20192;-76
2022/03/24 07:15:43;;;;;;;69.40;34.77;;;8.10;99.90;;;;;;4973136;28;20259;-75
2022/03/24 07:18:10;;;;;;;81.83;39.90;;;8.20;99.90;;;;;;4954675;28;20188;-75
2022/03/24 07:20:37;;;;;;;78.17;38.77;;;8.30;99.90;;;;;;4976783;28;20188;-76
2022/03/24 07:23:04;;;;;;;83.33;41.53;;;8.50;99.90;;;;;;4984791;28;20188;-77
2022/03/24 07:25:31;;;;;;;82.77;38.77;;;8.70;99.90;;;;;;4976858;28;20188;-78
2022/03/24 07:27:57;;;;;;;83.97;38.90;;;9.90;99.90;;;;;;4977923;28;20194;-77
2022/03/24 07:30:23;;;;;;;74.10;40.27;;;11.60;99.90;;;;;;4982603;28;20184;-76
2022/03/24 07:32:49;;;;;;;75.20;39.05;;;13.50;99.90;;;;;;4961355;28;20283;-79
2022/03/24 07:35:18;;;;;;;71.65;36.20;;;15.00;99.90;;;;;;4979382;28;20311;-78
2022/03/24 07:37:46;;;;;;;81.90;38.45;;;16.30;99.90;;;;;;4993537;28;20188;-79
2022/03/24 07:40:12;;;;;;;63.67;37.80;;;17.20;99.90;;;;;;4965028;28;20287;-71
2022/03/24 07:42:39;;;;;;;83.40;38.90;;;18.10;99.90;;;;;;4986261;28;20188;-79
2022/03/24 07:45:06;;;;;;;91.90;43.95;;;18.60;99.90;;;;;;4980088;28;20311;-75
2022/03/24 07:47:32;;;;;;;72.07;41.15;;;19.30;99.90;;;;;;4978054;28;20222;-79
2022/03/24 07:49:57;;;;;;;81.18;43.25;;;20.00;99.90;;;;;;4981243;28;20272;-82
2022/03/24 07:52:30;;;;;;;85.57;41.63;;;20.50;99.90;;;;;;4980560;28;20180;-78
2022/03/24 07:54:55;;;;;;;101.53;42.47;;;21.00;99.90;;;;;;4986756;28;20223;-78
2022/03/24 07:57:26;;;;;;;109.70;46.15;;;21.40;99.90;;;;;;4977927;28;20404;-77
2022/03/24 07:59:53;;;;;;;87.38;42.85;;;21.80;99.90;;;;;;4960767;28;20197;-80
2022/03/24 08:02:19;;;;;;;79.13;43.67;;;22.00;99.90;;;;;;4962944;28;20271;-75
2022/03/24 08:04:45;;;;;;;95.68;43.15;;;22.40;99.90;;;;;;4977523;28;20529;-78
2022/03/24 08:07:11;;;;;;;88.72;47.42;;;22.60;99.90;;;;;;4975626;28;20192;-75
2022/03/24 08:09:36;;;;;;;100.10;47.15;;;22.70;99.90;;;;;;4977371;28;20204;-77
2022/03/24 08:12:03;;;;;;;103.78;47.90;;;23.00;99.90;;;;;;4959723;28;20195;-76
2022/03/24 08:14:29;;;;;;;90.63;45.67;;;23.10;99.90;;;;;;4984483;28;20220;-78
2022/03/24 08:16:54;;;;;;;100.43;45.47;;;23.50;99.90;;;;;;4985399;28;20235;-79
2022/03/24 08:19:21;;;;;;;103.82;47.85;;;23.50;99.90;;;;;;4976290;28;20251;-79
2022/03/24 08:21:46;;;;;;;91.55;47.67;;;24.00;99.90;;;;;;4976686;28;20716;-81
2022/03/24 08:24:12;;;;;;;99.85;46.85;;;24.10;99.90;;;;;;4975290;28;20200;-79
2022/03/24 08:26:38;;;;;;;88.13;49.33;;;23.70;99.90;;;;;;4975630;28;20198;-75
2022/03/24 08:29:04;;;;;;;81.97;44.95;;;24.20;99.90;;;;;;4976240;28;20680;-76
2022/03/24 08:31:30;;;;;;;107.00;49.20;;;24.60;99.90;;;;;;4988127;28;20540;-77
2022/03/24 08:33:57;;;;;;;87.57;45.58;;;24.30;99.90;;;;;;4973070;28;20610;-79
2022/03/24 08:36:23;;;;;;;85.53;48.85;;;24.40;99.90;;;;;;4976340;28;20184;-79
2022/03/24 08:38:49;;;;;;;91.15;48.53;;;24.80;99.90;;;;;;4979100;28;20275;-79
2022/03/24 08:41:14;;;;;;;92.00;45.97;;;24.90;99.90;;;;;;4975665;28;20320;-81
2022/03/24 08:43:40;;;;;;;88.97;44.30;;;25.00;99.90;;;;;;4958863;28;20196;-81
2022/03/24 08:46:09;;;;;;;88.97;47.80;;;24.70;99.90;;;;;;4977209;28;20195;-82
2022/03/24 08:48:35;;;;;;;92.05;49.65;;;23.70;99.90;;;;;;4975035;28;20191;-82
2022/03/24 08:51:02;;;;;;;89.55;49.15;;;22.30;99.90;;;;;;4976510;28;20196;-80
2022/03/24 08:53:27;;;;;;;89.88;45.55;;;21.30;99.90;;;;;;4975886;28;20267;-80
2022/03/24 08:55:55;;;;;;;89.65;45.25;;;20.30;99.90;;;;;;4975079;28;20223;-80
2022/03/24 08:58:21;;;;;;;100.40;49.08;;;19.50;99.90;;;;;;4975250;28;20239;-80
2022/03/24 09:00:47;;;;;;;101.68;48.47;;;18.90;99.90;;;;;;4961921;28;20551;-78
2022/03/24 09:03:13;;;;;;;99.18;48.88;;;18.60;99.90;;;;;;4971733;28;20189;-77
2022/03/24 09:05:39;;;;;;;97.05;49.47;;;18.40;99.90;;;;;;4974504;28;20191;-78
2022/03/24 09:08:06;;;;;;;95.25;49.65;;;18.00;99.90;;;;;;4976241;28;20201;-78
2022/03/24 09:10:32;;;;;;;98.78;47.03;;;17.50;99.90;;;;;;4976307;28;20192;-76
2022/03/24 09:12:58;;;;;;;105.35;51.17;;;17.20;99.90;;;;;;4959749;28;20733;-78
2022/03/24 09:15:24;;;;;;;110.63;50.25;;;17.20;99.90;;;;;;4994081;28;20215;-76
2022/03/24 09:17:49;;;;;;;94.13;46.75;;;17.40;99.90;;;;;;4978115;28;20184;-71
2022/03/24 09:20:18;;;;;;;99.20;50.50;;;17.00;99.90;;;;;;4975934;28;20255;-77
2022/03/24 09:22:46;;;;;;;102.38;50.88;;;16.90;99.90;;;;;;4974725;28;20176;-75
2022/03/24 09:25:14;;;;;;;95.80;47.67;;;16.90;99.90;;;;;;4974792;28;20197;-76
2022/03/24 09:27:42;;;;;;;99.15;47.60;;;16.90;99.90;;;;;;4977194;28;20388;-76
2022/03/24 09:30:09;;;;;;;93.40;47.63;;;16.80;99.90;;;;;;4971674;28;20224;-74
2022/03/24 09:32:36;;;;;;;90.93;46.38;;;16.70;99.90;;;;;;4988906;28;20176;-79
2022/03/24 09:35:04;;;;;;;81.53;44.65;;;16.60;99.90;;;;;;4977761;28;20221;-77
2022/03/24 09:37:32;;;;;;;85.93;43.17;;;16.60;99.90;;;;;;4975818;28;20544;-76
2022/03/24 09:39:58;;;;;;;87.93;46.25;;;16.70;99.90;;;;;;4973510;28;20185;-74
2022/03/24 09:42:24;;;;;;;94.43;48.65;;;16.80;99.90;;;;;;4975323;28;20677;-73
2022/03/24 09:44:50;;;;;;;90.65;49.67;;;16.90;99.90;;;;;;4976371;28;20184;-74
2022/03/24 09:47:16;;;;;;;96.43;50.10;;;16.80;99.90;;;;;;4978540;28;20176;-73
2022/03/24 09:49:42;;;;;;;89.13;48.45;;;17.00;99.90;;;;;;4976639;28;20189;-75
2022/03/24 09:52:13;;;;;;;98.35;48.42;;;17.20;99.90;;;;;;4975189;28;20259;-79
2022/03/24 09:54:42;;;;;;;88.50;45.95;;;17.10;99.90;;;;;;4979915;28;20580;-77
2022/03/24 09:57:09;;;;;;;68.13;38.42;;;17.10;99.90;;;;;;4973817;28;20669;-80
2022/03/24 09:59:35;;;;;;;80.00;41.90;;;16.90;99.90;;;;;;4974596;28;20192;-80
2022/03/24 10:02:03;;;;;;;70.53;34.00;;;17.00;99.90;;;;;;4980690;28;20188;-79
2022/03/24 10:04:48;;;;;;;68.90;34.40;;;17.10;99.90;;;;;;4989132;28;20198;-78
2022/03/24 10:07:15;;;;;;;59.95;32.00;;;16.70;99.90;;;;;;4982496;28;20185;-79
2022/03/24 10:09:44;;;;;;;65.93;35.45;;;16.70;99.90;;;;;;4976847;28;20215;-79
2022/03/24 10:12:21;;;;;;;70.53;39.08;;;16.70;99.90;;;;;;4962031;28;20235;-78
2022/03/24 10:15:04;;;;;;;77.90;37.53;;;16.40;99.90;;;;;;4991827;28;20214;-78
2022/03/24 10:17:31;;;;;;;71.95;38.63;;;16.50;99.90;;;;;;4978878;28;20242;-76
2022/03/24 10:20:20;;;;;;;78.18;41.20;;;16.70;99.90;;;;;;4980842;28;20530;-76
2022/03/24 10:23:14;;;;;;;79.03;39.15;;;16.90;99.90;;;;;;4965661;28;20193;-77
2022/03/24 10:25:42;;;;;;;65.65;36.85;;;16.90;99.90;;;;;;4973979;28;20428;-73
2022/03/24 10:28:14;;;;;;;71.45;38.13;;;17.10;99.90;;;;;;4974466;28;20668;-75
2022/03/24 10:30:45;;;;;;;85.40;40.90;;;17.30;99.90;;;;;;4973709;28;20658;-73
2022/03/24 10:33:45;;;;;;;79.25;41.45;;;17.30;99.90;;;;;;4978588;28;20343;-74
2022/03/24 10:36:17;;;;;;;65.20;38.38;;;17.20;99.90;;;;;;4957674;28;20196;-74
2022/03/24 10:38:49;;;;;;;79.70;42.05;;;17.30;99.90;;;;;;4974956;28;20197;-74
2022/03/24 10:41:20;;;;;;;78.13;40.28;;;17.50;99.90;;;;;;4980401;28;20195;-72
2022/03/24 10:43:49;;;;;;;74.80;39.08;;;17.20;99.90;;;;;;4976097;28;20184;-73
2022/03/24 10:46:22;;;;;;;79.20;42.78;;;16.90;99.90;;;;;;4973273;28;20267;-68
2022/03/24 10:48:49;;;;;;;78.53;39.05;;;16.70;99.90;;;;;;4980335;28;20188;-76
2022/03/24 10:51:32;;;;;;;76.97;40.45;;;16.80;99.90;;;;;;4996733;28;20191;-77
2022/03/24 10:54:37;;;;;;;81.28;40.70;;;17.00;99.90;;;;;;4983431;28;20249;-75
2022/03/24 10:57:14;;;;;;;73.38;38.03;;;17.30;99.90;;;;;;4974017;28;20198;-75
2022/03/24 10:59:43;;;;;;;68.82;35.78;;;17.10;99.90;;;;;;4973554;28;20552;-77
2022/03/24 11:02:09;;;;;;;71.68;35.80;;;17.00;99.90;;;;;;4974154;28;20700;-78
2022/03/24 11:04:36;;;;;;;70.85;34.03;;;17.00;99.90;;;;;;4973776;28;20193;-77
2022/03/24 11:07:02;;;;;;;70.68;34.42;;;17.10;99.90;;;;;;4974174;28;20273;-78
2022/03/24 11:09:29;;;;;;;68.63;37.13;;;17.40;99.90;;;;;;4973210;28;20292;-78
2022/03/24 11:12:36;;;;;;;74.10;35.10;;;17.20;99.90;;;;;;4972835;28;20193;-77
2022/03/24 11:15:05;;;;;;;61.50;33.08;;;17.00;99.90;;;;;;4977741;28;20231;-79
2022/03/24 11:17:34;;;;;;;65.43;36.63;;;17.10;99.90;;;;;;4975051;28;20185;-73
2022/03/24 11:20:07;;;;;;;73.13;36.83;;;17.30;99.90;;;;;;4972930;28;20189;-77
2022/03/24 11:22:51;;;;;;;68.25;34.70;;;17.50;99.90;;;;;;4981480;28;20666;-73
2022/03/24 11:25:18;;;;;;;50.38;27.15;;;17.70;99.90;;;;;;4973544;28;20557;-81
2022/03/24 11:27:45;;;;;;;46.20;24.10;;;17.60;99.90;;;;;;4979869;28;20202;-79
2022/03/24 11:30:13;;;;;;;50.80;27.08;;;17.70;99.90;;;;;;4979964;28;20227;-75
2022/03/24 11:32:41;;;;;;;51.80;28.05;;;17.70;99.90;;;;;;4973565;28;20220;-76
2022/03/24 11:35:11;;;;;;;44.20;25.02;;;17.60;99.90;;;;;;4973796;28;20733;-76
2022/03/24 11:37:37;;;;;;;45.55;24.17;;;17.50;99.90;;;;;;4973535;28;20191;-78
2022/03/24 11:40:15;;;;;;;43.90;22.27;;;17.50;99.90;;;;;;4972857;28;20181;-69
2022/03/24 11:42:48;;;;;;;53.55;24.88;;;17.50;99.90;;;;;;4980393;28;20235;-73
2022/03/24 11:45:13;;;;;;;35.28;20.98;;;17.30;99.90;;;;;;4982635;28;20648;-76
2022/03/24 11:48:01;;;;;;;46.70;23.40;;;17.40;99.90;;;;;;4976059;28;20224;-79
2022/03/24 11:50:45;;;;;;;37.33;21.95;;;17.40;99.90;;;;;;4977129;28;20188;-79
2022/03/24 11:53:38;;;;;;;38.97;22.73;;;17.30;99.90;;;;;;4979335;28;20267;-80
2022/03/24 11:56:12;;;;;;;46.88;24.70;;;17.30;99.90;;;;;;4983706;28;20665;-78
2022/03/24 11:58:44;;;;;;;44.22;23.42;;;17.50;99.90;;;;;;4980508;28;20200;-80
2022/03/24 12:01:22;;;;;;;43.13;23.02;;;17.40;99.90;;;;;;4974476;28;20188;-79
2022/03/24 12:03:51;;;;;;;40.33;22.00;;;17.50;99.90;;;;;;4981488;28;20184;-80
2022/03/24 12:06:18;;;;;;;45.50;24.13;;;17.30;99.90;;;;;;4984725;28;20189;-75
2022/03/24 12:09:01;;;;;;;43.92;25.27;;;17.30;99.90;;;;;;4964687;28;20203;-78
2022/03/24 12:11:34;;;;;;;40.28;23.35;;;17.40;99.90;;;;;;4984631;28;20184;-79
2022/03/24 12:14:14;;;;;;;40.67;22.20;;;17.50;99.90;;;;;;4977493;28;20220;-79
2022/03/24 12:17:07;;;;;;;47.30;25.48;;;17.60;99.90;;;;;;4981821;28;20195;-76
2022/03/24 12:19:35;;;;;;;39.70;23.40;;;17.60;99.90;;;;;;4977031;28;20207;-76
2022/03/24 12:22:21;;;;;;;43.67;25.40;;;17.80;99.90;;;;;;4982228;28;20316;-77
2022/03/24 12:24:47;;;;;;;46.67;24.88;;;17.80;99.90;;;;;;4987676;28;20570;-80
2022/03/24 12:27:15;;;;;;;44.58;24.80;;;17.90;99.90;;;;;;4979616;28;20184;-80
2022/03/24 12:29:41;;;;;;;45.83;22.50;;;18.00;99.90;;;;;;4976825;28;20189;-74
2022/03/24 12:32:11;;;;;;;45.97;24.02;;;17.90;99.90;;;;;;4980545;28;20204;-74
2022/03/24 12:34:40;;;;;;;46.83;24.48;;;18.10;99.90;;;;;;4976784;28;20578;-81
2022/03/24 12:37:07;;;;;;;45.30;23.50;;;18.00;99.90;;;;;;4983033;28;20214;-72
2022/03/24 12:39:37;;;;;;;40.85;22.90;;;18.00;99.90;;;;;;4977803;28;20199;-79
2022/03/24 12:42:13;;;;;;;43.83;23.83;;;18.10;99.90;;;;;;4975414;28;20707;-80
2022/03/24 12:44:52;;;;;;;46.72;25.55;;;18.30;99.90;;;;;;4975752;28;20243;-78